createdAt,value
2023-02-16T00:01:49.329Z,16.95
2023-02-16T00:06:44.593Z,19.02
2023-02-16T00:09:11.091Z,17.30
2023-02-16T00:11:56.210Z,18.10
2023-02-16T00:14:26.289Z,19.75
2023-02-16T00:16:54.955Z,16.05
2023-02-16T00:19:35.057Z,17.65
2023-02-16T00:22:02.498Z,21.10
2023-02-16T00:24:30.511Z,18.15
2023-02-16T00:26:58.065Z,21.13
2023-02-16T00:29:30.674Z,19.52
2023-02-16T00:31:58.878Z,18.70
2023-02-16T00:34:41.482Z,18.42
2023-02-16T00:37:10.655Z,18.95
2023-02-16T00:39:38.707Z,19.00
2023-02-16T00:42:12.071Z,19.25
2023-02-16T00:44:44.259Z,18.67
2023-02-16T00:47:32.320Z,18.23
2023-02-16T00:49:59.131Z,22.40
2023-02-16T00:55:09.310Z,16.00
2023-02-16T00:57:41.477Z,17.15
2023-02-16T01:00:10.859Z,17.33
2023-02-16T01:02:37.291Z,19.98
2023-02-16T01:05:04.479Z,17.38
2023-02-16T01:07:49.770Z,17.30
2023-02-16T01:10:37.334Z,16.85
2023-02-16T01:13:04.412Z,16.52
2023-02-16T01:15:30.988Z,16.80
2023-02-16T01:17:57.612Z,19.98
2023-02-16T01:20:26.108Z,19.23
2023-02-16T01:22:52.549Z,24.02
2023-02-16T01:25:19.141Z,20.58
2023-02-16T01:27:46.437Z,19.85
2023-02-16T01:30:16.351Z,22.25
2023-02-16T01:32:42.900Z,21.63
2023-02-16T01:35:10.396Z,21.48
2023-02-16T01:37:36.912Z,21.48
2023-02-16T01:40:04.101Z,19.20
2023-02-16T01:42:41.361Z,19.38
2023-02-16T01:45:19.877Z,22.38
2023-02-16T01:48:01.766Z,19.42
2023-02-16T01:50:41.850Z,17.77
2023-02-16T01:53:37.426Z,20.00
2023-02-16T01:56:06.991Z,17.98
2023-02-16T01:58:44.478Z,24.90
2023-02-16T02:01:39.542Z,25.40
2023-02-16T02:04:44.239Z,21.85
2023-02-16T02:07:17.918Z,19.30
2023-02-16T02:09:55.727Z,24.20
2023-02-16T02:12:32.851Z,21.80
2023-02-16T02:14:59.379Z,24.95
2023-02-16T02:17:27.679Z,21.25
2023-02-16T02:19:59.844Z,24.90
2023-02-16T02:22:57.029Z,20.50
2023-02-16T02:26:11.844Z,23.52
2023-02-16T02:29:02.582Z,25.95
2023-02-16T02:32:04.703Z,21.05
2023-02-16T02:35:08.911Z,25.67
2023-02-16T02:37:56.257Z,26.50
2023-02-16T02:40:28.772Z,25.40
2023-02-16T02:43:17.737Z,26.10
2023-02-16T02:45:49.674Z,24.48
2023-02-16T02:48:16.249Z,21.08
2023-02-16T02:51:23.466Z,22.73
2023-02-16T02:54:15.231Z,22.48
2023-02-16T02:57:06.666Z,24.33
2023-02-16T02:59:56.504Z,22.92
2023-02-16T03:02:25.181Z,21.25
2023-02-16T03:04:54.017Z,22.70
2023-02-16T03:07:43.360Z,23.90
2023-02-16T03:10:28.738Z,21.60
2023-02-16T03:12:57.827Z,25.27
2023-02-16T03:15:26.199Z,23.35
2023-02-16T03:18:13.932Z,23.63
2023-02-16T03:21:02.099Z,28.88
2023-02-16T03:23:48.165Z,25.63
2023-02-16T03:26:34.346Z,23.65
2023-02-16T03:29:21.647Z,26.77
2023-02-16T03:31:49.834Z,26.58
2023-02-16T03:34:37.362Z,27.45
2023-02-16T03:37:05.283Z,24.73
2023-02-16T03:39:32.727Z,25.00
2023-02-16T03:41:59.283Z,25.27
2023-02-16T03:44:25.808Z,20.75
2023-02-16T03:46:52.391Z,22.70
2023-02-16T03:49:19.787Z,23.67
2023-02-16T03:51:47.030Z,26.33
2023-02-16T03:54:13.629Z,22.23
2023-02-16T03:56:40.201Z,23.83
2023-02-16T03:59:06.710Z,23.55
2023-02-16T04:01:33.269Z,26.45
2023-02-16T04:03:59.772Z,25.20
2023-02-16T04:06:26.468Z,24.65
2023-02-16T04:08:53.065Z,22.95
2023-02-16T04:11:38.273Z,24.17
2023-02-16T04:14:04.741Z,24.38
2023-02-16T04:16:31.234Z,21.60
2023-02-16T04:18:57.709Z,21.73
2023-02-16T04:21:24.187Z,23.35
2023-02-16T04:23:50.662Z,22.80
2023-02-16T04:26:17.121Z,19.95
2023-02-16T04:28:43.720Z,20.48
2023-02-16T04:31:10.237Z,21.38
2023-02-16T04:33:36.791Z,22.60
2023-02-16T04:36:03.348Z,24.80
2023-02-16T04:38:29.772Z,21.02
2023-02-16T04:40:56.254Z,22.52
2023-02-16T04:43:22.790Z,21.63
2023-02-16T04:45:49.291Z,21.05
2023-02-16T04:48:15.774Z,19.77
2023-02-16T04:50:42.225Z,23.83
2023-02-16T04:53:08.690Z,22.65
2023-02-16T04:55:35.157Z,22.00
2023-02-16T04:58:01.665Z,24.20
2023-02-16T05:00:28.897Z,23.70
2023-02-16T05:02:55.353Z,21.00
2023-02-16T05:05:21.850Z,21.90
2023-02-16T05:07:48.342Z,25.35
2023-02-16T05:10:14.809Z,20.58
2023-02-16T05:13:00.118Z,13.32
2023-02-16T05:15:26.547Z,12.20
2023-02-16T05:17:53.062Z,16.02
2023-02-16T05:20:19.544Z,16.10
2023-02-16T05:22:46.495Z,19.98
2023-02-16T05:25:13.414Z,21.98
2023-02-16T05:27:39.917Z,21.83
2023-02-16T05:30:07.004Z,22.42
2023-02-16T05:32:33.499Z,21.23
2023-02-16T05:35:00.156Z,24.77
2023-02-16T05:37:26.595Z,25.98
2023-02-16T05:39:53.289Z,22.35
2023-02-16T05:42:19.767Z,22.80
2023-02-16T05:44:46.194Z,21.23
2023-02-16T05:47:12.750Z,22.58
2023-02-16T05:49:39.277Z,19.15
2023-02-16T05:52:05.860Z,22.52
2023-02-16T05:54:32.387Z,21.15
2023-02-16T05:56:58.865Z,22.00
2023-02-16T05:59:25.412Z,22.77
2023-02-16T06:01:52.688Z,23.05
2023-02-16T06:04:20.534Z,21.92
2023-02-16T06:06:47.596Z,23.75
2023-02-16T06:09:14.243Z,24.42
2023-02-16T06:11:40.744Z,27.85
2023-02-16T06:14:13.502Z,24.85
2023-02-16T06:16:42.207Z,24.17
2023-02-16T06:19:09.376Z,25.40
2023-02-16T06:21:36.912Z,24.88
2023-02-16T06:24:04.043Z,13.60
2023-02-16T06:26:30.703Z,23.08
2023-02-16T06:28:57.356Z,23.73
2023-02-16T06:31:25.464Z,22.70
2023-02-16T06:33:53.026Z,25.33
2023-02-16T06:36:20.148Z,22.65
2023-02-16T06:38:47.006Z,24.52
2023-02-16T06:43:40.076Z,21.77
2023-02-16T06:46:06.709Z,25.83
2023-02-16T06:48:33.333Z,19.83
2023-02-16T06:50:59.831Z,21.48
2023-02-16T06:53:26.367Z,21.02
2023-02-16T06:55:52.905Z,23.08
2023-02-16T06:58:19.449Z,27.17
2023-02-16T07:00:45.970Z,23.38
2023-02-16T07:03:12.656Z,21.42
2023-02-16T07:05:39.203Z,26.13
2023-02-16T07:08:05.702Z,26.83
2023-02-16T07:10:47.511Z,22.08
2023-02-16T07:13:15.905Z,25.83
2023-02-16T07:15:42.354Z,24.17
2023-02-16T07:18:08.837Z,27.13
2023-02-16T07:20:35.312Z,23.50
2023-02-16T07:23:01.802Z,24.65
2023-02-16T07:25:28.716Z,44.70
2023-02-16T07:27:55.390Z,25.90
2023-02-16T07:30:22.325Z,27.92
2023-02-16T07:32:48.843Z,23.63
2023-02-16T07:35:15.265Z,26.00
2023-02-16T07:37:41.773Z,23.35
2023-02-16T07:40:08.868Z,24.58
2023-02-16T07:42:35.360Z,28.50
2023-02-16T07:45:01.844Z,23.08
2023-02-16T07:47:28.299Z,26.45
2023-02-16T07:49:54.866Z,24.88
2023-02-16T07:52:21.354Z,24.45
2023-02-16T07:54:47.899Z,24.00
2023-02-16T07:57:14.369Z,26.65
2023-02-16T07:59:40.942Z,25.63
2023-02-16T08:02:07.573Z,24.73
2023-02-16T08:04:34.525Z,26.90
2023-02-16T08:07:01.261Z,21.05
2023-02-16T08:09:27.709Z,22.15
2023-02-16T08:11:54.285Z,28.42
2023-02-16T08:14:20.763Z,29.73
2023-02-16T08:16:48.516Z,28.85
2023-02-16T08:19:16.775Z,27.98
2023-02-16T08:21:47.375Z,26.42
2023-02-16T08:24:13.866Z,26.25
2023-02-16T08:26:43.171Z,25.23
2023-02-16T08:29:10.229Z,26.65
2023-02-16T08:31:38.426Z,27.95
2023-02-16T08:34:05.823Z,23.58
2023-02-16T08:36:34.866Z,24.38
2023-02-16T08:39:04.241Z,27.23
2023-02-16T08:41:33.633Z,23.40
2023-02-16T08:44:00.919Z,29.25
2023-02-16T08:46:29.297Z,21.55
2023-02-16T08:49:00.417Z,26.23
2023-02-16T08:51:29.196Z,23.63
2023-02-16T08:54:00.276Z,22.40
2023-02-16T08:56:29.742Z,23.40
2023-02-16T08:58:57.204Z,22.40
2023-02-16T09:01:23.912Z,23.88
2023-02-16T09:06:21.434Z,23.58
2023-02-16T09:08:57.482Z,21.48
2023-02-16T09:11:25.597Z,23.77
2023-02-16T09:13:52.078Z,25.08
2023-02-16T09:16:22.503Z,24.35
2023-02-16T09:18:49.397Z,26.35
2023-02-16T09:23:48.214Z,25.27
2023-02-16T09:26:19.363Z,26.52
2023-02-16T09:28:47.277Z,25.58
2023-02-16T09:31:23.739Z,25.48
2023-02-16T09:33:50.250Z,22.80
2023-02-16T09:36:17.359Z,26.60
2023-02-16T09:41:27.905Z,24.40
2023-02-16T09:44:29.755Z,24.50
2023-02-16T09:46:58.838Z,23.92
2023-02-16T09:49:37.915Z,22.65
2023-02-16T09:52:19.801Z,26.65
2023-02-16T09:54:51.534Z,23.15
2023-02-16T09:57:49.166Z,23.00
2023-02-16T10:00:51.297Z,25.30
2023-02-16T10:03:41.433Z,21.27
2023-02-16T18:39:29.445Z,11.20
2023-02-16T18:41:55.981Z,17.48
2023-02-16T18:44:22.510Z,16.33
2023-02-16T18:46:49.074Z,16.50
2023-02-16T18:49:15.594Z,16.35
2023-02-16T18:51:42.140Z,18.75
2023-02-16T18:54:08.677Z,18.30
2023-02-16T18:56:37.345Z,17.58
2023-02-16T18:59:04.403Z,17.40
2023-02-16T19:01:32.722Z,18.83
2023-02-16T19:04:00.860Z,17.15
2023-02-16T19:06:27.994Z,17.02
2023-02-16T19:08:54.691Z,17.95
2023-02-16T19:13:48.600Z,17.50
2023-02-16T19:16:16.432Z,16.90
2023-02-16T19:18:43.227Z,18.70
2023-02-16T19:23:37.833Z,17.23
2023-02-16T19:26:12.845Z,17.58
2023-02-16T19:28:39.988Z,19.98
2023-02-16T19:31:09.358Z,20.73
2023-02-16T19:33:35.956Z,20.90
2023-02-16T19:36:08.624Z,20.27
2023-02-16T19:38:35.926Z,19.50
2023-02-16T19:41:10.800Z,18.73
2023-02-16T19:43:37.429Z,18.02
2023-02-16T19:46:05.682Z,20.25
2023-02-16T19:48:32.455Z,22.48
2023-02-16T19:51:00.965Z,16.65
2023-02-16T19:53:28.271Z,18.20
2023-02-16T19:55:54.856Z,17.70
2023-02-16T19:58:22.710Z,18.00
2023-02-16T20:00:49.507Z,20.83
2023-02-16T20:05:43.218Z,18.15
2023-02-16T20:08:10.296Z,19.60
2023-02-16T20:10:43.953Z,22.70
2023-02-16T20:13:11.263Z,19.10
2023-02-16T20:15:37.803Z,18.75
2023-02-16T20:18:06.005Z,20.88
2023-02-16T20:20:32.576Z,20.40
2023-02-16T20:22:59.072Z,19.50
2023-02-16T20:25:25.795Z,23.55
2023-02-16T20:27:52.564Z,20.13
2023-02-16T20:32:48.457Z,17.17
2023-02-16T20:35:15.292Z,20.00
2023-02-16T20:37:41.899Z,22.30
2023-02-16T20:40:08.885Z,23.35
2023-02-16T20:42:35.645Z,23.48
2023-02-16T20:47:30.071Z,19.30
2023-02-16T20:49:56.590Z,22.38
2023-02-16T20:52:23.178Z,23.98
2023-02-16T20:54:49.683Z,22.23
2023-02-16T20:57:26.429Z,25.80
2023-02-16T20:59:54.423Z,19.83
2023-02-16T21:02:20.991Z,27.52
2023-02-16T21:04:47.544Z,24.45
2023-02-16T21:07:14.136Z,24.30
2023-02-16T21:09:40.635Z,21.75
2023-02-16T21:12:07.178Z,22.70
2023-02-16T21:14:33.763Z,24.58
2023-02-16T21:17:00.698Z,23.02
2023-02-16T21:19:27.198Z,23.25
2023-02-16T21:21:53.728Z,22.02
2023-02-16T21:24:20.787Z,20.08
2023-02-16T21:26:47.427Z,22.85
2023-02-16T21:29:17.041Z,21.30
2023-02-16T21:31:43.716Z,21.30
2023-02-16T21:36:37.732Z,19.77
2023-02-16T21:39:05.198Z,20.40
2023-02-16T21:41:31.723Z,23.77
2023-02-16T21:44:10.142Z,23.13
2023-02-16T21:46:42.247Z,21.00
2023-02-16T21:49:12.795Z,20.67
2023-02-16T21:51:41.007Z,20.65
2023-02-16T21:54:14.424Z,21.50
2023-02-16T21:56:50.235Z,21.60
2023-02-16T21:59:19.034Z,20.27
2023-02-16T22:01:48.079Z,22.23
2023-02-16T22:04:18.731Z,20.52
2023-02-16T22:06:47.402Z,20.13
2023-02-16T22:09:19.066Z,19.17
2023-02-16T22:11:46.587Z,18.95
2023-02-16T22:14:13.905Z,18.70
2023-02-16T22:16:40.941Z,19.52
2023-02-16T22:19:16.349Z,20.23
2023-02-16T22:21:44.993Z,18.98
2023-02-16T22:24:14.008Z,18.52
2023-02-16T22:26:40.854Z,17.35
2023-02-16T22:29:08.787Z,20.52
2023-02-16T22:31:36.155Z,20.00
2023-02-16T22:34:06.325Z,17.33
2023-02-16T22:36:33.410Z,17.42
2023-02-16T22:39:00.114Z,17.83
2023-02-16T22:43:55.796Z,17.33
2023-02-16T22:46:23.910Z,16.85
2023-02-16T22:48:51.020Z,18.00
2023-02-16T22:51:19.470Z,18.50
2023-02-16T22:53:46.420Z,18.85
2023-02-16T22:56:15.908Z,19.52
2023-02-16T22:58:42.732Z,18.23
2023-02-16T23:01:17.151Z,17.40
2023-02-16T23:03:49.826Z,17.38
2023-02-16T23:06:22.814Z,20.00
2023-02-16T23:08:59.045Z,20.60
2023-02-16T23:11:26.995Z,16.67
2023-02-16T23:13:53.875Z,18.42
2023-02-16T23:16:23.261Z,17.52
2023-02-16T23:18:50.718Z,16.88
2023-02-16T23:21:24.665Z,18.13
2023-02-16T23:23:52.381Z,19.75
2023-02-16T23:26:21.076Z,18.80
2023-02-16T23:28:51.659Z,18.15
2023-02-16T23:31:18.579Z,17.98
2023-02-16T23:33:45.099Z,18.02
2023-02-16T23:36:11.765Z,18.25
2023-02-16T23:38:38.301Z,17.55
2023-02-16T23:41:09.019Z,17.73
2023-02-16T23:43:35.790Z,17.52
2023-02-16T23:48:31.306Z,16.95
2023-02-16T23:50:58.361Z,18.23
2023-02-16T23:53:27.105Z,17.83
2023-02-16T23:56:14.514Z,19.38
2023-02-16T23:58:42.772Z,15.77
